MOL Partner — 3EBZ5 — position and weather

sailwx.info

Track history (hours):
 
Tides and Currents Weather Stations Pressure Air Temp Water Temp Dewpoint Dewpoint Depression Visibility Wind Speed Wind Dir Waves Ship Positions

MOL Partner

Last reported at 2016-Apr-28 12:10 UTC. Time now 2016-Apr-28 23:56 UTC.
Position N 22°55' E 117°03'.

Length 293 m; draft 10.7 m.

Type: Ship (hazmat cat D). MMSI: 371303000.

Date/timePositionNaut miles runAvg speedWind from/ knotsBaromVisibWave heightAir tempDewpointWater temp
2016-Apr-28 12:10N 22°55' E 117°03'1314.2
2016-Apr-28 11:13N 23°02' E 117°15'1114.2
2016-Apr-28 10:28N 23°09' E 117°24'3014.1
2016-Apr-28 08:19N 23°26' E 117°51'1213.4
2016-Apr-28 07:23N 23°34' E 118°02'1214.5
2016-Apr-28 06:32N 23°42' E 118°12'1515.2
2016-Apr-28 05:33N 23°51' E 118°24'1514.8
2016-Apr-28 04:33N 24°01' E 118°37'1814.6
2016-Apr-28 03:19N 24°13' E 118°52'1214.4
2016-Apr-28 02:29N 24°20' E 119°02'1314.5
2016-Apr-28 01:33N 24°28' E 119°14'35514.2
2016-Apr-27 00:33N 29°40' E 122°25'1413.6
2016-Apr-26 23:32N 29°49' E 122°13'1010.6
2016-Apr-26 22:33N 29°54' E 122°03'0 0.2
2016-Apr-26 20:30N 29°54' E 122°02'0 0.0
2016-Apr-26 13:30N 29°54' E 122°02'0 0.0
2016-Apr-26 12:32N 29°54' E 122°02'4 4.4
2016-Apr-26 11:32N 29°56' E 122°07'9 9.6
2016-Apr-26 10:34N 29°49' E 122°14'8 8.3
2016-Apr-26 09:33N 29°44' E 122°22'10 9.6
2016-Apr-26 08:30N 29°46' E 122°34'9 9.6
2016-Apr-26 07:31N 29°49' E 122°44'33915.4
2016-Apr-25 09:33N 33°34' E 127°43'2019.6
2016-Apr-25 08:33N 33°48' E 127°59'140 4.2
2016-Apr-23 23:33N 34°03' E 130°47'43910.4
2016-Apr-22 05:23N 34°51' E 139°36'1214.0
2016-Apr-22 04:33N 35°02' E 139°41'1313.3
2016-Apr-22 03:33N 35°14' E 139°46'1110.7
2016-Apr-22 02:34N 35°24' E 139°41'0 0.3
2016-Apr-22 01:31N 35°24' E 139°41'0 0.0
2016-Apr-22 00:34N 35°24' E 139°41'0 0.0
2016-Apr-21 23:31N 35°24' E 139°41'2 2.2
2016-Apr-21 22:33N 35°22' E 139°42'1110.8
2016-Apr-21 21:33N 35°12' E 139°47'9 9.1
2016-Apr-21 20:33N 35°03' E 139°45'1110.6
2016-Apr-21 19:31N 34°52' E 139°47'1313.2
2016-Apr-21 18:33N 34°50' E 140°03'1413.9
2016-Apr-21 17:33N 34°50' E 140°19'1615.5
2016-Apr-21 16:32N 35°01' E 140°33'  
Track history (hours):
 
Tides and Currents Weather Stations Pressure Air Temp Water Temp Dewpoint Dewpoint Depression Visibility Wind Speed Wind Dir Waves Ship Positions

MOL Partner

Last reported at 2016-Apr-28 12:10 UTC. Time now 2016-Apr-28 23:56 UTC.
Position N 22°55' E 117°03'.

Length 293 m; draft 10.7 m.

Type: Ship (hazmat cat D). MMSI: 371303000.

Date/timePositionNaut miles runAvg speedWind from/ knotsBaromVisibWave heightAir tempDewpointWater temp
2016-Apr-28 12:10N 22°55' E 117°03'1314.2
2016-Apr-28 11:13N 23°02' E 117°15'1114.2
2016-Apr-28 10:28N 23°09' E 117°24'3014.1
2016-Apr-28 08:19N 23°26' E 117°51'1213.4
2016-Apr-28 07:23N 23°34' E 118°02'1214.5
2016-Apr-28 06:32N 23°42' E 118°12'1515.2
2016-Apr-28 05:33N 23°51' E 118°24'1514.8
2016-Apr-28 04:33N 24°01' E 118°37'1814.6
2016-Apr-28 03:19N 24°13' E 118°52'1214.4
2016-Apr-28 02:29N 24°20' E 119°02'1314.5
2016-Apr-28 01:33N 24°28' E 119°14'35514.2
2016-Apr-27 00:33N 29°40' E 122°25'1413.6
2016-Apr-26 23:32N 29°49' E 122°13'1010.6
2016-Apr-26 22:33N 29°54' E 122°03'0 0.2
2016-Apr-26 20:30N 29°54' E 122°02'0 0.0
2016-Apr-26 13:30N 29°54' E 122°02'0 0.0
2016-Apr-26 12:32N 29°54' E 122°02'4 4.4
2016-Apr-26 11:32N 29°56' E 122°07'9 9.6
2016-Apr-26 10:34N 29°49' E 122°14'8 8.3
2016-Apr-26 09:33N 29°44' E 122°22'10 9.6
2016-Apr-26 08:30N 29°46' E 122°34'9 9.6
2016-Apr-26 07:31N 29°49' E 122°44'33915.4
2016-Apr-25 09:33N 33°34' E 127°43'2019.6
2016-Apr-25 08:33N 33°48' E 127°59'140 4.2
2016-Apr-23 23:33N 34°03' E 130°47'43910.4
2016-Apr-22 05:23N 34°51' E 139°36'1214.0
2016-Apr-22 04:33N 35°02' E 139°41'1313.3
2016-Apr-22 03:33N 35°14' E 139°46'1110.7
2016-Apr-22 02:34N 35°24' E 139°41'0 0.3
2016-Apr-22 01:31N 35°24' E 139°41'0 0.0
2016-Apr-22 00:34N 35°24' E 139°41'0 0.0
2016-Apr-21 23:31N 35°24' E 139°41'2 2.2
2016-Apr-21 22:33N 35°22' E 139°42'1110.8
2016-Apr-21 21:33N 35°12' E 139°47'9 9.1
2016-Apr-21 20:33N 35°03' E 139°45'1110.6
2016-Apr-21 19:31N 34°52' E 139°47'1313.2
2016-Apr-21 18:33N 34°50' E 140°03'1413.9
2016-Apr-21 17:33N 34°50' E 140°19'1615.5
2016-Apr-21 16:32N 35°01' E 140°33'  

Dump ship's entire track history